sensor_id;sensor_type;location;lat;lon;timestamp;P1;durP1;ratioP1;P2;durP2;ratioP2
55423;SDS011;41294;42.666;23.350;2022-08-01T00:00:33;2.70;;;2.50;;
55423;SDS011;41294;42.666;23.350;2022-08-01T00:02:59;3.70;;;2.65;;
55423;SDS011;41294;42.666;23.350;2022-08-01T00:05:24;4.85;;;2.78;;
55423;SDS011;41294;42.666;23.350;2022-08-01T00:07:50;2.47;;;2.30;;
55423;SDS011;41294;42.666;23.350;2022-08-01T00:10:15;3.45;;;2.50;;
55423;SDS011;41294;42.666;23.350;2022-08-01T00:12:42;3.88;;;2.67;;
55423;SDS011;41294;42.666;23.350;2022-08-01T00:15:10;3.15;;;2.50;;
55423;SDS011;41294;42.666;23.350;2022-08-01T00:17:38;2.47;;;2.28;;
55423;SDS011;41294;42.666;23.350;2022-08-01T00:20:04;2.70;;;2.50;;
55423;SDS011;41294;42.666;23.350;2022-08-01T00:22:31;3.95;;;2.55;;
55423;SDS011;41294;42.666;23.350;2022-08-01T00:24:57;2.35;;;2.15;;
55423;SDS011;41294;42.666;23.350;2022-08-01T00:27:23;2.13;;;2.03;;
55423;SDS011;41294;42.666;23.350;2022-08-01T00:29:49;2.47;;;2.28;;
55423;SDS011;41294;42.666;23.350;2022-08-01T00:32:14;2.30;;;2.10;;
55423;SDS011;41294;42.666;23.350;2022-08-01T00:34:40;3.25;;;2.95;;
55423;SDS011;41294;42.666;23.350;2022-08-01T00:37:05;4.63;;;3.63;;
55423;SDS011;41294;42.666;23.350;2022-08-01T00:39:30;4.50;;;3.58;;
55423;SDS011;41294;42.666;23.350;2022-08-01T00:41:58;4.70;;;3.90;;
55423;SDS011;41294;42.666;23.350;2022-08-01T00:44:24;5.63;;;4.28;;
55423;SDS011;41294;42.666;23.350;2022-08-01T00:46:50;6.70;;;4.55;;
55423;SDS011;41294;42.666;23.350;2022-08-01T00:49:15;4.85;;;4.45;;
55423;SDS011;41294;42.666;23.350;2022-08-01T00:51:41;5.45;;;4.70;;
55423;SDS011;41294;42.666;23.350;2022-08-01T00:54:06;5.05;;;4.55;;
55423;SDS011;41294;42.666;23.350;2022-08-01T00:56:32;5.00;;;4.60;;
55423;SDS011;41294;42.666;23.350;2022-08-01T00:58:57;4.82;;;4.25;;
55423;SDS011;41294;42.666;23.350;2022-08-01T01:01:23;4.72;;;4.38;;
55423;SDS011;41294;42.666;23.350;2022-08-01T01:03:49;5.63;;;4.72;;
55423;SDS011;41294;42.666;23.350;2022-08-01T01:11:44;4.57;;;4.18;;
55423;SDS011;41294;42.666;23.350;2022-08-01T01:17:39;4.47;;;4.07;;
55423;SDS011;41294;42.666;23.350;2022-08-01T01:20:12;5.53;;;4.10;;
55423;SDS011;41294;42.666;23.350;2022-08-01T01:25:46;4.50;;;4.10;;
55423;SDS011;41294;42.666;23.350;2022-08-01T01:31:34;5.90;;;3.60;;
55423;SDS011;41294;42.666;23.350;2022-08-01T01:34:09;4.10;;;3.70;;
55423;SDS011;41294;42.666;23.350;2022-08-01T01:36:38;3.72;;;3.42;;
55423;SDS011;41294;42.666;23.350;2022-08-01T01:39:05;6.60;;;3.35;;
55423;SDS011;41294;42.666;23.350;2022-08-01T01:41:32;3.80;;;3.03;;
55423;SDS011;41294;42.666;23.350;2022-08-01T01:43:58;3.85;;;3.45;;
55423;SDS011;41294;42.666;23.350;2022-08-01T01:46:26;4.72;;;3.20;;
55423;SDS011;41294;42.666;23.350;2022-08-01T01:48:53;21.50;;;7.03;;
55423;SDS011;41294;42.666;23.350;2022-08-01T01:51:22;8.57;;;3.97;;
55423;SDS011;41294;42.666;23.350;2022-08-01T01:56:35;5.47;;;3.20;;
55423;SDS011;41294;42.666;23.350;2022-08-01T01:59:13;4.90;;;3.10;;
55423;SDS011;41294;42.666;23.350;2022-08-01T02:01:43;2.50;;;2.30;;
55423;SDS011;41294;42.666;23.350;2022-08-01T02:04:09;2.72;;;2.53;;
55423;SDS011;41294;42.666;23.350;2022-08-01T02:06:35;2.70;;;2.30;;
55423;SDS011;41294;42.666;23.350;2022-08-01T02:09:03;5.30;;;2.60;;
55423;SDS011;41294;42.666;23.350;2022-08-01T02:11:30;5.00;;;2.58;;
55423;SDS011;41294;42.666;23.350;2022-08-01T02:13:57;2.65;;;2.35;;
55423;SDS011;41294;42.666;23.350;2022-08-01T02:16:26;2.55;;;2.35;;
55423;SDS011;41294;42.666;23.350;2022-08-01T02:18:55;3.08;;;2.33;;
55423;SDS011;41294;42.666;23.350;2022-08-01T02:21:28;2.70;;;2.50;;
55423;SDS011;41294;42.666;23.350;2022-08-01T02:24:00;2.92;;;2.50;;
55423;SDS011;41294;42.666;23.350;2022-08-01T02:26:33;4.13;;;2.40;;
55423;SDS011;41294;42.666;23.350;2022-08-01T02:29:05;3.78;;;2.10;;
55423;SDS011;41294;42.666;23.350;2022-08-01T02:31:35;2.80;;;2.33;;
55423;SDS011;41294;42.666;23.350;2022-08-01T02:34:06;3.55;;;2.20;;
55423;SDS011;41294;42.666;23.350;2022-08-01T02:36:34;1.88;;;1.77;;
55423;SDS011;41294;42.666;23.350;2022-08-01T02:39:03;2.40;;;2.20;;
55423;SDS011;41294;42.666;23.350;2022-08-01T02:41:33;2.10;;;2.00;;
55423;SDS011;41294;42.666;23.350;2022-08-01T02:44:05;2.88;;;2.10;;
55423;SDS011;41294;42.666;23.350;2022-08-01T02:46:41;3.45;;;2.60;;
55423;SDS011;41294;42.666;23.350;2022-08-01T02:49:14;2.50;;;2.30;;
55423;SDS011;41294;42.666;23.350;2022-08-01T02:51:41;3.65;;;2.55;;
55423;SDS011;41294;42.666;23.350;2022-08-01T02:54:09;5.20;;;2.80;;
55423;SDS011;41294;42.666;23.350;2022-08-01T02:56:36;2.72;;;2.53;;
55423;SDS011;41294;42.666;23.350;2022-08-01T02:59:04;6.10;;;3.10;;
55423;SDS011;41294;42.666;23.350;2022-08-01T03:01:33;2.70;;;2.47;;
55423;SDS011;41294;42.666;23.350;2022-08-01T03:04:00;3.25;;;2.90;;
55423;SDS011;41294;42.666;23.350;2022-08-01T03:06:26;2.95;;;2.67;;
55423;SDS011;41294;42.666;23.350;2022-08-01T03:08:53;7.35;;;3.05;;
55423;SDS011;41294;42.666;23.350;2022-08-01T03:11:20;4.18;;;2.75;;
55423;SDS011;41294;42.666;23.350;2022-08-01T03:13:49;3.00;;;2.70;;
55423;SDS011;41294;42.666;23.350;2022-08-01T03:16:17;3.60;;;3.03;;
55423;SDS011;41294;42.666;23.350;2022-08-01T03:18:43;3.03;;;2.83;;
55423;SDS011;41294;42.666;23.350;2022-08-01T03:21:11;3.40;;;3.20;;
55423;SDS011;41294;42.666;23.350;2022-08-01T03:23:39;3.58;;;3.28;;
55423;SDS011;41294;42.666;23.350;2022-08-01T03:26:06;3.85;;;3.03;;
55423;SDS011;41294;42.666;23.350;2022-08-01T03:28:33;3.13;;;2.90;;
55423;SDS011;41294;42.666;23.350;2022-08-01T03:30:59;3.85;;;3.30;;
55423;SDS011;41294;42.666;23.350;2022-08-01T03:33:26;3.55;;;3.35;;
55423;SDS011;41294;42.666;23.350;2022-08-01T03:35:52;4.13;;;3.10;;
55423;SDS011;41294;42.666;23.350;2022-08-01T03:38:19;3.63;;;3.33;;
55423;SDS011;41294;42.666;23.350;2022-08-01T03:40:59;5.55;;;3.20;;
55423;SDS011;41294;42.666;23.350;2022-08-01T03:43:37;3.55;;;2.90;;
55423;SDS011;41294;42.666;23.350;2022-08-01T03:46:07;3.42;;;3.10;;
55423;SDS011;41294;42.666;23.350;2022-08-01T03:48:39;3.78;;;2.97;;
55423;SDS011;41294;42.666;23.350;2022-08-01T03:51:07;5.40;;;2.92;;
55423;SDS011;41294;42.666;23.350;2022-08-01T03:53:34;3.22;;;2.90;;
55423;SDS011;41294;42.666;23.350;2022-08-01T03:56:02;4.38;;;2.88;;
55423;SDS011;41294;42.666;23.350;2022-08-01T03:58:29;6.40;;;2.92;;
55423;SDS011;41294;42.666;23.350;2022-08-01T04:00:56;3.58;;;2.90;;
55423;SDS011;41294;42.666;23.350;2022-08-01T04:03:22;3.88;;;2.92;;
55423;SDS011;41294;42.666;23.350;2022-08-01T04:05:48;4.60;;;2.83;;
55423;SDS011;41294;42.666;23.350;2022-08-01T04:08:14;3.65;;;2.83;;
55423;SDS011;41294;42.666;23.350;2022-08-01T04:10:39;3.33;;;2.95;;
55423;SDS011;41294;42.666;23.350;2022-08-01T04:13:04;6.30;;;2.78;;
55423;SDS011;41294;42.666;23.350;2022-08-01T04:15:31;5.47;;;3.30;;
55423;SDS011;41294;42.666;23.350;2022-08-01T04:17:56;3.50;;;2.72;;
55423;SDS011;41294;42.666;23.350;2022-08-01T04:20:22;3.50;;;2.75;;
55423;SDS011;41294;42.666;23.350;2022-08-01T04:22:47;3.47;;;2.90;;
55423;SDS011;41294;42.666;23.350;2022-08-01T04:25:21;3.20;;;2.90;;
55423;SDS011;41294;42.666;23.350;2022-08-01T04:27:53;5.70;;;3.40;;
55423;SDS011;41294;42.666;23.350;2022-08-01T04:30:22;4.63;;;2.97;;
55423;SDS011;41294;42.666;23.350;2022-08-01T04:32:52;5.93;;;2.95;;
55423;SDS011;41294;42.666;23.350;2022-08-01T04:35:20;4.95;;;3.03;;
55423;SDS011;41294;42.666;23.350;2022-08-01T04:37:46;4.53;;;3.30;;
55423;SDS011;41294;42.666;23.350;2022-08-01T04:40:15;5.22;;;3.47;;
55423;SDS011;41294;42.666;23.350;2022-08-01T04:42:42;5.00;;;3.20;;
55423;SDS011;41294;42.666;23.350;2022-08-01T04:45:08;6.35;;;2.95;;
55423;SDS011;41294;42.666;23.350;2022-08-01T04:47:34;3.22;;;2.92;;
55423;SDS011;41294;42.666;23.350;2022-08-01T04:50:04;4.63;;;2.75;;
55423;SDS011;41294;42.666;23.350;2022-08-01T04:52:35;7.82;;;3.60;;
55423;SDS011;41294;42.666;23.350;2022-08-01T04:55:02;6.38;;;4.43;;
55423;SDS011;41294;42.666;23.350;2022-08-01T04:57:28;5.32;;;3.30;;
55423;SDS011;41294;42.666;23.350;2022-08-01T04:59:54;4.57;;;2.92;;
55423;SDS011;41294;42.666;23.350;2022-08-01T05:02:22;4.78;;;3.22;;
55423;SDS011;41294;42.666;23.350;2022-08-01T05:04:48;3.80;;;3.30;;
55423;SDS011;41294;42.666;23.350;2022-08-01T05:07:14;10.57;;;3.95;;
55423;SDS011;41294;42.666;23.350;2022-08-01T05:09:40;5.75;;;3.42;;
55423;SDS011;41294;42.666;23.350;2022-08-01T05:12:07;6.35;;;3.63;;
55423;SDS011;41294;42.666;23.350;2022-08-01T05:14:34;5.53;;;4.00;;
55423;SDS011;41294;42.666;23.350;2022-08-01T05:17:00;6.88;;;3.80;;
55423;SDS011;41294;42.666;23.350;2022-08-01T05:19:28;7.63;;;4.40;;
55423;SDS011;41294;42.666;23.350;2022-08-01T05:21:57;7.65;;;3.80;;
55423;SDS011;41294;42.666;23.350;2022-08-01T05:24:23;6.07;;;3.40;;
55423;SDS011;41294;42.666;23.350;2022-08-01T05:26:48;8.73;;;3.75;;
55423;SDS011;41294;42.666;23.350;2022-08-01T05:29:14;6.30;;;3.80;;
55423;SDS011;41294;42.666;23.350;2022-08-01T05:31:40;3.97;;;3.47;;
55423;SDS011;41294;42.666;23.350;2022-08-01T05:34:05;8.55;;;3.80;;
55423;SDS011;41294;42.666;23.350;2022-08-01T05:36:31;5.28;;;3.40;;
55423;SDS011;41294;42.666;23.350;2022-08-01T05:38:56;5.38;;;3.10;;
55423;SDS011;41294;42.666;23.350;2022-08-01T05:41:22;7.72;;;3.30;;
55423;SDS011;41294;42.666;23.350;2022-08-01T05:43:47;6.28;;;3.08;;
55423;SDS011;41294;42.666;23.350;2022-08-01T05:46:13;5.57;;;3.28;;
55423;SDS011;41294;42.666;23.350;2022-08-01T05:48:38;5.05;;;2.78;;
55423;SDS011;41294;42.666;23.350;2022-08-01T05:51:04;7.78;;;3.10;;
55423;SDS011;41294;42.666;23.350;2022-08-01T05:53:29;6.82;;;3.92;;
55423;SDS011;41294;42.666;23.350;2022-08-01T05:55:55;3.92;;;2.97;;
55423;SDS011;41294;42.666;23.350;2022-08-01T05:58:20;4.90;;;3.10;;
55423;SDS011;41294;42.666;23.350;2022-08-01T06:00:46;8.18;;;3.05;;
55423;SDS011;41294;42.666;23.350;2022-08-01T06:03:11;4.95;;;2.95;;
55423;SDS011;41294;42.666;23.350;2022-08-01T06:05:37;3.92;;;2.75;;
55423;SDS011;41294;42.666;23.350;2022-08-01T06:08:02;2.47;;;2.28;;
55423;SDS011;41294;42.666;23.350;2022-08-01T06:10:28;2.60;;;2.38;;
55423;SDS011;41294;42.666;23.350;2022-08-01T06:12:54;4.53;;;2.33;;
55423;SDS011;41294;42.666;23.350;2022-08-01T06:15:19;6.35;;;2.60;;
55423;SDS011;41294;42.666;23.350;2022-08-01T06:17:46;2.47;;;2.10;;
55423;SDS011;41294;42.666;23.350;2022-08-01T06:20:11;3.72;;;1.77;;
55423;SDS011;41294;42.666;23.350;2022-08-01T06:22:37;6.38;;;2.10;;
55423;SDS011;41294;42.666;23.350;2022-08-01T06:25:02;2.03;;;1.83;;
55423;SDS011;41294;42.666;23.350;2022-08-01T06:27:28;4.50;;;2.40;;
55423;SDS011;41294;42.666;23.350;2022-08-01T06:29:53;2.15;;;1.90;;
55423;SDS011;41294;42.666;23.350;2022-08-01T06:32:22;5.75;;;2.30;;
55423;SDS011;41294;42.666;23.350;2022-08-01T06:34:49;3.15;;;1.75;;
55423;SDS011;41294;42.666;23.350;2022-08-01T06:37:15;2.75;;;2.08;;
55423;SDS011;41294;42.666;23.350;2022-08-01T06:39:40;3.20;;;2.10;;
55423;SDS011;41294;42.666;23.350;2022-08-01T06:42:06;4.18;;;1.90;;
55423;SDS011;41294;42.666;23.350;2022-08-01T06:44:32;3.25;;;2.00;;
55423;SDS011;41294;42.666;23.350;2022-08-01T06:46:57;2.47;;;1.98;;
55423;SDS011;41294;42.666;23.350;2022-08-01T06:49:23;2.72;;;1.88;;
55423;SDS011;41294;42.666;23.350;2022-08-01T06:51:49;5.07;;;2.03;;
55423;SDS011;41294;42.666;23.350;2022-08-01T06:54:15;2.55;;;2.22;;
55423;SDS011;41294;42.666;23.350;2022-08-01T06:56:41;2.05;;;1.90;;
55423;SDS011;41294;42.666;23.350;2022-08-01T06:59:06;3.47;;;1.90;;
55423;SDS011;41294;42.666;23.350;2022-08-01T07:01:32;2.22;;;2.03;;
55423;SDS011;41294;42.666;23.350;2022-08-01T07:03:57;4.38;;;2.10;;
55423;SDS011;41294;42.666;23.350;2022-08-01T07:06:24;2.85;;;2.15;;
55423;SDS011;41294;42.666;23.350;2022-08-01T07:08:50;3.25;;;1.90;;
55423;SDS011;41294;42.666;23.350;2022-08-01T07:11:16;2.85;;;2.20;;
55423;SDS011;41294;42.666;23.350;2022-08-01T07:13:42;4.10;;;2.05;;
55423;SDS011;41294;42.666;23.350;2022-08-01T07:16:07;5.25;;;2.08;;
55423;SDS011;41294;42.666;23.350;2022-08-01T07:18:33;4.53;;;2.55;;
55423;SDS011;41294;42.666;23.350;2022-08-01T07:20:59;6.20;;;2.42;;
55423;SDS011;41294;42.666;23.350;2022-08-01T07:23:24;2.65;;;2.28;;
55423;SDS011;41294;42.666;23.350;2022-08-01T07:25:49;3.17;;;2.40;;
55423;SDS011;41294;42.666;23.350;2022-08-01T07:28:17;3.00;;;2.20;;
55423;SDS011;41294;42.666;23.350;2022-08-01T07:30:42;4.03;;;2.42;;
55423;SDS011;41294;42.666;23.350;2022-08-01T07:33:09;2.50;;;2.15;;
55423;SDS011;41294;42.666;23.350;2022-08-01T07:35:35;2.22;;;2.08;;
55423;SDS011;41294;42.666;23.350;2022-08-01T07:38:03;2.38;;;2.17;;
55423;SDS011;41294;42.666;23.350;2022-08-01T07:40:29;2.17;;;2.00;;
55423;SDS011;41294;42.666;23.350;2022-08-01T07:42:54;4.25;;;2.30;;
55423;SDS011;41294;42.666;23.350;2022-08-01T07:45:20;2.78;;;1.90;;
55423;SDS011;41294;42.666;23.350;2022-08-01T07:47:45;2.72;;;2.50;;
55423;SDS011;41294;42.666;23.350;2022-08-01T07:50:11;3.25;;;2.20;;
55423;SDS011;41294;42.666;23.350;2022-08-01T07:52:37;3.50;;;2.35;;
55423;SDS011;41294;42.666;23.350;2022-08-01T07:55:03;2.00;;;1.90;;
55423;SDS011;41294;42.666;23.350;2022-08-01T07:57:29;2.92;;;1.88;;
55423;SDS011;41294;42.666;23.350;2022-08-01T07:59:55;6.00;;;2.20;;
55423;SDS011;41294;42.666;23.350;2022-08-01T08:02:20;2.67;;;2.03;;
55423;SDS011;41294;42.666;23.350;2022-08-01T08:04:46;4.47;;;2.10;;
55423;SDS011;41294;42.666;23.350;2022-08-01T08:07:11;4.88;;;2.13;;
55423;SDS011;41294;42.666;23.350;2022-08-01T08:09:37;3.50;;;1.90;;
55423;SDS011;41294;42.666;23.350;2022-08-01T08:12:02;5.05;;;2.08;;
55423;SDS011;41294;42.666;23.350;2022-08-01T08:14:28;5.07;;;2.20;;
55423;SDS011;41294;42.666;23.350;2022-08-01T08:16:54;4.40;;;2.00;;
55423;SDS011;41294;42.666;23.350;2022-08-01T08:19:19;2.25;;;2.10;;
55423;SDS011;41294;42.666;23.350;2022-08-01T08:21:45;2.45;;;2.25;;
55423;SDS011;41294;42.666;23.350;2022-08-01T08:24:10;9.10;;;2.28;;
55423;SDS011;41294;42.666;23.350;2022-08-01T08:26:48;5.20;;;2.10;;
55423;SDS011;41294;42.666;23.350;2022-08-01T08:29:17;4.53;;;2.17;;
55423;SDS011;41294;42.666;23.350;2022-08-01T08:31:43;2.97;;;2.10;;
55423;SDS011;41294;42.666;23.350;2022-08-01T08:34:08;2.65;;;2.13;;
55423;SDS011;41294;42.666;23.350;2022-08-01T08:36:34;3.40;;;2.10;;
55423;SDS011;41294;42.666;23.350;2022-08-01T08:39:00;2.22;;;2.08;;
55423;SDS011;41294;42.666;23.350;2022-08-01T08:41:25;6.03;;;2.33;;
55423;SDS011;41294;42.666;23.350;2022-08-01T08:43:51;14.13;;;2.10;;
55423;SDS011;41294;42.666;23.350;2022-08-01T08:46:18;3.38;;;2.17;;
55423;SDS011;41294;42.666;23.350;2022-08-01T08:48:45;2.47;;;2.28;;
55423;SDS011;41294;42.666;23.350;2022-08-01T08:51:10;2.47;;;1.90;;
55423;SDS011;41294;42.666;23.350;2022-08-01T08:53:38;3.05;;;2.20;;
55423;SDS011;41294;42.666;23.350;2022-08-01T08:56:10;2.50;;;2.00;;
55423;SDS011;41294;42.666;23.350;2022-08-01T08:58:37;5.65;;;2.15;;
55423;SDS011;41294;42.666;23.350;2022-08-01T09:01:06;5.40;;;2.05;;
55423;SDS011;41294;42.666;23.350;2022-08-01T09:03:35;4.53;;;2.00;;
55423;SDS011;41294;42.666;23.350;2022-08-01T09:06:01;3.92;;;2.28;;
55423;SDS011;41294;42.666;23.350;2022-08-01T09:08:27;5.43;;;2.20;;
55423;SDS011;41294;42.666;23.350;2022-08-01T09:10:53;2.95;;;2.03;;
55423;SDS011;41294;42.666;23.350;2022-08-01T09:13:18;4.50;;;2.08;;
55423;SDS011;41294;42.666;23.350;2022-08-01T09:15:44;3.78;;;1.98;;
55423;SDS011;41294;42.666;23.350;2022-08-01T09:26:11;3.45;;;2.20;;
55423;SDS011;41294;42.666;23.350;2022-08-01T09:28:38;2.20;;;2.00;;
55423;SDS011;41294;42.666;23.350;2022-08-01T09:31:11;2.30;;;1.63;;
55423;SDS011;41294;42.666;23.350;2022-08-01T09:33:58;3.00;;;2.00;;
55423;SDS011;41294;42.666;23.350;2022-08-01T09:39:18;2.30;;;1.65;;
55423;SDS011;41294;42.666;23.350;2022-08-01T09:41:45;6.47;;;2.10;;
55423;SDS011;41294;42.666;23.350;2022-08-01T09:44:11;5.32;;;2.03;;
55423;SDS011;41294;42.666;23.350;2022-08-01T09:46:48;3.15;;;2.00;;
55423;SDS011;41294;42.666;23.350;2022-08-01T09:49:31;2.08;;;1.75;;
55423;SDS011;41294;42.666;23.350;2022-08-01T09:52:00;3.20;;;2.13;;
55423;SDS011;41294;42.666;23.350;2022-08-01T09:55:05;4.28;;;2.22;;
55423;SDS011;41294;42.666;23.350;2022-08-01T09:57:31;3.22;;;2.05;;
55423;SDS011;41294;42.666;23.350;2022-08-01T09:59:59;4.65;;;2.22;;
55423;SDS011;41294;42.666;23.350;2022-08-01T10:02:26;2.38;;;2.17;;
55423;SDS011;41294;42.666;23.350;2022-08-01T10:04:55;2.10;;;2.00;;
55423;SDS011;41294;42.666;23.350;2022-08-01T10:07:20;7.97;;;2.20;;
55423;SDS011;41294;42.666;23.350;2022-08-01T10:09:47;2.42;;;2.22;;
55423;SDS011;41294;42.666;23.350;2022-08-01T10:12:14;4.90;;;1.92;;
55423;SDS011;41294;42.666;23.350;2022-08-01T10:14:43;7.53;;;2.25;;
55423;SDS011;41294;42.666;23.350;2022-08-01T10:17:12;3.08;;;2.50;;
55423;SDS011;41294;42.666;23.350;2022-08-01T10:19:40;3.38;;;2.33;;
55423;SDS011;41294;42.666;23.350;2022-08-01T10:22:10;5.93;;;2.70;;
55423;SDS011;41294;42.666;23.350;2022-08-01T10:24:44;3.75;;;2.10;;
55423;SDS011;41294;42.666;23.350;2022-08-01T10:27:14;4.05;;;2.33;;
55423;SDS011;41294;42.666;23.350;2022-08-01T10:32:07;6.13;;;2.50;;
55423;SDS011;41294;42.666;23.350;2022-08-01T10:34:34;2.28;;;2.10;;
55423;SDS011;41294;42.666;23.350;2022-08-01T10:37:01;2.90;;;1.83;;
55423;SDS011;41294;42.666;23.350;2022-08-01T10:39:27;2.40;;;2.20;;
55423;SDS011;41294;42.666;23.350;2022-08-01T10:41:56;2.47;;;2.28;;
55423;SDS011;41294;42.666;23.350;2022-08-01T10:44:23;2.28;;;1.80;;
55423;SDS011;41294;42.666;23.350;2022-08-01T10:46:50;3.30;;;2.45;;
55423;SDS011;41294;42.666;23.350;2022-08-01T10:49:22;6.55;;;2.22;;
55423;SDS011;41294;42.666;23.350;2022-08-01T10:51:53;3.20;;;2.20;;
55423;SDS011;41294;42.666;23.350;2022-08-01T10:54:19;3.90;;;2.03;;
55423;SDS011;41294;42.666;23.350;2022-08-01T10:56:50;3.55;;;2.17;;
55423;SDS011;41294;42.666;23.350;2022-08-01T10:59:20;1.63;;;1.48;;
55423;SDS011;41294;42.666;23.350;2022-08-01T11:02:00;1.90;;;1.80;;
55423;SDS011;41294;42.666;23.350;2022-08-01T11:07:06;2.47;;;1.80;;
55423;SDS011;41294;42.666;23.350;2022-08-01T11:10:16;3.13;;;1.77;;
55423;SDS011;41294;42.666;23.350;2022-08-01T11:12:46;4.65;;;2.10;;
55423;SDS011;41294;42.666;23.350;2022-08-01T11:22:30;1.92;;;1.80;;
55423;SDS011;41294;42.666;23.350;2022-08-01T11:24:55;3.83;;;2.00;;
55423;SDS011;41294;42.666;23.350;2022-08-01T11:27:22;4.60;;;2.13;;
55423;SDS011;41294;42.666;23.350;2022-08-01T11:32:51;3.03;;;2.00;;
55423;SDS011;41294;42.666;23.350;2022-08-01T11:35:18;3.53;;;1.98;;
55423;SDS011;41294;42.666;23.350;2022-08-01T11:37:46;2.13;;;1.92;;
55423;SDS011;41294;42.666;23.350;2022-08-01T11:40:20;1.70;;;1.60;;
55423;SDS011;41294;42.666;23.350;2022-08-01T11:42:50;2.10;;;2.00;;
55423;SDS011;41294;42.666;23.350;2022-08-01T11:45:46;3.78;;;2.20;;
55423;SDS011;41294;42.666;23.350;2022-08-01T11:48:22;2.53;;;1.92;;
55423;SDS011;41294;42.666;23.350;2022-08-01T11:50:53;4.07;;;2.30;;
55423;SDS011;41294;42.666;23.350;2022-08-01T11:53:19;3.30;;;2.10;;
55423;SDS011;41294;42.666;23.350;2022-08-01T11:55:47;3.83;;;2.60;;
55423;SDS011;41294;42.666;23.350;2022-08-01T11:58:19;4.10;;;1.90;;
55423;SDS011;41294;42.666;23.350;2022-08-01T12:00:53;2.20;;;2.00;;
55423;SDS011;41294;42.666;23.350;2022-08-01T12:03:23;4.43;;;2.10;;
55423;SDS011;41294;42.666;23.350;2022-08-01T12:05:53;3.88;;;1.83;;
55423;SDS011;41294;42.666;23.350;2022-08-01T12:08:26;3.15;;;2.20;;
55423;SDS011;41294;42.666;23.350;2022-08-01T12:10:52;2.60;;;2.20;;
55423;SDS011;41294;42.666;23.350;2022-08-01T12:13:18;2.60;;;2.10;;
55423;SDS011;41294;42.666;23.350;2022-08-01T12:15:45;2.00;;;1.80;;
55423;SDS011;41294;42.666;23.350;2022-08-01T12:18:11;3.67;;;1.90;;
55423;SDS011;41294;42.666;23.350;2022-08-01T12:20:37;3.13;;;2.20;;
55423;SDS011;41294;42.666;23.350;2022-08-01T12:23:05;2.22;;;2.05;;
55423;SDS011;41294;42.666;23.350;2022-08-01T12:25:34;2.25;;;2.05;;
55423;SDS011;41294;42.666;23.350;2022-08-01T12:28:01;2.45;;;1.90;;
55423;SDS011;41294;42.666;23.350;2022-08-01T12:30:28;2.63;;;2.22;;
55423;SDS011;41294;42.666;23.350;2022-08-01T12:32:56;2.72;;;2.15;;
55423;SDS011;41294;42.666;23.350;2022-08-01T12:35:26;2.70;;;2.10;;
55423;SDS011;41294;42.666;23.350;2022-08-01T12:37:54;4.40;;;2.38;;
55423;SDS011;41294;42.666;23.350;2022-08-01T12:40:25;2.50;;;2.30;;
55423;SDS011;41294;42.666;23.350;2022-08-01T12:43:05;4.53;;;2.35;;
55423;SDS011;41294;42.666;23.350;2022-08-01T12:48:07;3.78;;;2.20;;
55423;SDS011;41294;42.666;23.350;2022-08-01T12:50:37;5.68;;;2.47;;
55423;SDS011;41294;42.666;23.350;2022-08-01T12:53:04;4.22;;;2.25;;
55423;SDS011;41294;42.666;23.350;2022-08-01T12:55:31;2.95;;;2.30;;
55423;SDS011;41294;42.666;23.350;2022-08-01T12:58:04;2.58;;;2.38;;
55423;SDS011;41294;42.666;23.350;2022-08-01T13:00:35;2.75;;;2.30;;
55423;SDS011;41294;42.666;23.350;2022-08-01T13:03:06;2.45;;;2.25;;
55423;SDS011;41294;42.666;23.350;2022-08-01T13:05:49;3.03;;;2.40;;
55423;SDS011;41294;42.666;23.350;2022-08-01T13:08:20;3.53;;;2.13;;
55423;SDS011;41294;42.666;23.350;2022-08-01T13:11:00;3.80;;;2.30;;
55423;SDS011;41294;42.666;23.350;2022-08-01T13:13:39;3.70;;;2.45;;
55423;SDS011;41294;42.666;23.350;2022-08-01T13:16:05;2.55;;;2.35;;
55423;SDS011;41294;42.666;23.350;2022-08-01T13:18:33;2.60;;;2.40;;
55423;SDS011;41294;42.666;23.350;2022-08-01T13:29:13;3.00;;;2.28;;
55423;SDS011;41294;42.666;23.350;2022-08-01T13:31:42;2.70;;;2.50;;
55423;SDS011;41294;42.666;23.350;2022-08-01T13:34:08;2.53;;;2.33;;
55423;SDS011;41294;42.666;23.350;2022-08-01T13:36:34;5.70;;;2.10;;
55423;SDS011;41294;42.666;23.350;2022-08-01T13:39:00;2.28;;;2.08;;
55423;SDS011;41294;42.666;23.350;2022-08-01T13:41:45;2.92;;;2.25;;
55423;SDS011;41294;42.666;23.350;2022-08-01T13:44:11;2.47;;;2.28;;
55423;SDS011;41294;42.666;23.350;2022-08-01T13:46:37;2.80;;;2.25;;
55423;SDS011;41294;42.666;23.350;2022-08-01T13:49:03;3.35;;;2.10;;
55423;SDS011;41294;42.666;23.350;2022-08-01T13:51:29;3.08;;;2.05;;
55423;SDS011;41294;42.666;23.350;2022-08-01T13:53:55;2.38;;;2.28;;
55423;SDS011;41294;42.666;23.350;2022-08-01T13:56:21;3.72;;;2.50;;
55423;SDS011;41294;42.666;23.350;2022-08-01T13:58:46;6.28;;;2.30;;
55423;SDS011;41294;42.666;23.350;2022-08-01T14:01:12;1.95;;;1.83;;
55423;SDS011;41294;42.666;23.350;2022-08-01T14:03:38;2.40;;;2.20;;
55423;SDS011;41294;42.666;23.350;2022-08-01T14:06:03;3.10;;;2.80;;
55423;SDS011;41294;42.666;23.350;2022-08-01T14:08:29;2.28;;;2.17;;
55423;SDS011;41294;42.666;23.350;2022-08-01T14:10:55;2.30;;;2.10;;
55423;SDS011;41294;42.666;23.350;2022-08-01T14:13:23;4.53;;;2.40;;
55423;SDS011;41294;42.666;23.350;2022-08-01T14:15:50;2.20;;;2.00;;
55423;SDS011;41294;42.666;23.350;2022-08-01T14:18:16;3.28;;;2.30;;
55423;SDS011;41294;42.666;23.350;2022-08-01T14:20:41;4.65;;;2.25;;
55423;SDS011;41294;42.666;23.350;2022-08-01T14:23:07;3.20;;;1.98;;
55423;SDS011;41294;42.666;23.350;2022-08-01T14:25:34;5.40;;;2.40;;
55423;SDS011;41294;42.666;23.350;2022-08-01T14:28:03;3.50;;;2.10;;
55423;SDS011;41294;42.666;23.350;2022-08-01T14:30:29;2.35;;;2.15;;
55423;SDS011;41294;42.666;23.350;2022-08-01T14:32:55;2.72;;;2.10;;
55423;SDS011;41294;42.666;23.350;2022-08-01T14:35:20;3.58;;;1.90;;
55423;SDS011;41294;42.666;23.350;2022-08-01T14:37:46;3.85;;;2.17;;
55423;SDS011;41294;42.666;23.350;2022-08-01T14:40:12;2.30;;;2.10;;
55423;SDS011;41294;42.666;23.350;2022-08-01T14:42:37;2.22;;;2.05;;
55423;SDS011;41294;42.666;23.350;2022-08-01T14:45:05;3.92;;;2.10;;
55423;SDS011;41294;42.666;23.350;2022-08-01T14:47:41;2.25;;;1.90;;
55423;SDS011;41294;42.666;23.350;2022-08-01T14:50:11;3.63;;;2.25;;
55423;SDS011;41294;42.666;23.350;2022-08-01T14:52:38;2.33;;;2.10;;
55423;SDS011;41294;42.666;23.350;2022-08-01T14:55:05;3.45;;;2.30;;
55423;SDS011;41294;42.666;23.350;2022-08-01T14:57:32;2.63;;;1.95;;
55423;SDS011;41294;42.666;23.350;2022-08-01T14:59:58;2.20;;;2.00;;
55423;SDS011;41294;42.666;23.350;2022-08-01T15:02:24;2.67;;;1.92;;
55423;SDS011;41294;42.666;23.350;2022-08-01T15:04:50;4.05;;;1.88;;
55423;SDS011;41294;42.666;23.350;2022-08-01T15:07:16;4.50;;;2.10;;
55423;SDS011;41294;42.666;23.350;2022-08-01T15:09:42;1.95;;;1.85;;
55423;SDS011;41294;42.666;23.350;2022-08-01T15:12:08;4.40;;;1.83;;
55423;SDS011;41294;42.666;23.350;2022-08-01T15:14:34;2.35;;;1.80;;
55423;SDS011;41294;42.666;23.350;2022-08-01T15:17:19;2.10;;;2.00;;
55423;SDS011;41294;42.666;23.350;2022-08-01T15:19:47;2.60;;;2.10;;
55423;SDS011;41294;42.666;23.350;2022-08-01T15:22:14;1.98;;;1.77;;
55423;SDS011;41294;42.666;23.350;2022-08-01T15:24:40;1.95;;;1.70;;
55423;SDS011;41294;42.666;23.350;2022-08-01T15:27:07;3.08;;;2.20;;
55423;SDS011;41294;42.666;23.350;2022-08-01T15:29:33;3.95;;;1.90;;
55423;SDS011;41294;42.666;23.350;2022-08-01T15:31:59;1.90;;;1.80;;